Time;durP1;ratioP1;P1;durP2;ratioP2;P2;SDS_P1;SDS_P2;PMS_P1;PMS_P2;Temp;Humidity;BMP_temperature;BMP_pressure;BME280_temperature;BME280_humidity;BME280_pressure;Samples;Min_cycle;Max_cycle;Signal;HPM_P1;HPM_P2
2021/08/04 00:00:06;;;;;;;5.68;2.92;;;;;;;22.27;61.28;99633.88;4258943;33;33533;-90
2021/08/04 00:02:38;;;;;;;6.20;3.87;;;;;;;22.33;61.24;99637.13;4259724;33;33699;-90
2021/08/04 00:05:08;;;;;;;5.90;3.55;;;;;;;22.33;61.29;99631.84;4247961;33;34171;-89
2021/08/04 00:07:35;;;;;;;4.43;3.20;;;;;;;22.21;61.46;99634.19;4259676;33;35055;-90
2021/08/04 00:10:04;;;;;;;5.57;3.20;;;;;;;22.42;61.28;99636.66;4247433;33;34539;-90
2021/08/04 00:12:32;;;;;;;5.15;3.30;;;;;;;22.36;61.34;99637.00;4247636;33;33926;-89
2021/08/04 00:14:59;;;;;;;6.40;3.50;;;;;;;22.22;61.77;99632.41;4258393;33;33503;-89
2021/08/04 00:17:27;;;;;;;6.12;3.30;;;;;;;22.27;61.58;99632.16;4259674;33;33833;-90
2021/08/04 00:19:58;;;;;;;4.80;3.58;;;;;;;22.27;61.57;99625.09;4260075;33;35135;-90
2021/08/04 00:22:29;;;;;;;7.12;3.30;;;;;;;22.18;61.89;99631.69;4258958;33;33718;-89
2021/08/04 00:24:57;;;;;;;4.87;3.20;;;;;;;22.21;61.89;99628.03;4245767;33;35073;-88
2021/08/04 00:27:27;;;;;;;7.43;3.25;;;;;;;22.06;62.49;99619.03;4258666;33;35084;-88
2021/08/04 00:30:11;;;;;;;4.87;3.10;;;;;;;22.04;62.54;99626.22;4248702;33;33758;-90
2021/08/04 00:32:40;;;;;;;5.85;3.15;;;;;;;22.03;62.67;99623.66;4259183;33;33522;-89
2021/08/04 00:35:09;;;;;;;4.12;2.97;;;;;;;22.15;62.19;99621.25;4247175;33;33170;-88
2021/08/04 00:37:36;;;;;;;3.62;2.95;;;;;;;22.07;62.43;99611.97;4246577;33;34231;-88
2021/08/04 00:40:05;;;;;;;4.68;3.08;;;;;;;22.06;62.47;99602.31;4258842;33;34553;-90
2021/08/04 00:42:33;;;;;;;5.30;2.85;;;;;;;22.15;62.22;99605.37;4248958;33;32846;-91
2021/08/04 00:45:40;;;;;;;8.45;3.25;;;;;;;22.20;62.15;99603.31;4264892;33;34422;-93
2021/08/04 00:48:55;;;;;;;4.95;2.97;;;;;;;22.16;62.35;99608.84;4256243;33;34000;-92
2021/08/04 00:51:51;;;;;;;4.93;2.72;;;;;;;22.00;62.71;99607.91;4248845;33;34405;-89
2021/08/04 00:54:19;;;;;;;4.25;3.05;;;;;;;22.07;62.58;99601.38;4258423;33;32943;-87
2021/08/04 00:56:46;;;;;;;3.70;3.03;;;;;;;22.06;62.62;99608.44;4246380;33;33324;-88
2021/08/04 00:59:15;;;;;;;3.65;3.10;;;;;;;22.00;62.75;99618.50;4269926;33;34434;-88
2021/08/04 01:01:59;;;;;;;5.03;3.17;;;;;;;21.99;62.76;99606.19;4258348;33;34007;-89
2021/08/04 01:04:30;;;;;;;6.62;3.35;;;;;;;22.00;62.85;99614.06;4258142;33;34304;-88
2021/08/04 01:07:01;;;;;;;5.03;3.12;;;;;;;22.07;nan;99612.81;4270059;33;34456;-90
2021/08/04 01:09:38;;;;;;;4.65;3.53;;;;;;;22.08;62.45;99597.81;4270688;33;34874;-89
2021/08/04 01:12:20;;;;;;;3.53;3.17;;;;;;;22.15;62.32;99602.72;4259109;33;34916;-88
2021/08/04 01:14:49;;;;;;;5.05;2.97;;;;;;;22.14;62.31;99585.09;4258146;33;33465;-89
2021/08/04 01:17:18;;;;;;;6.82;3.30;;;;;;;22.10;62.43;99585.34;4258071;33;34268;-87
2021/08/04 01:19:48;;;;;;;5.68;2.75;;;;;;;22.19;61.95;99588.38;4258199;33;34671;-91
2021/08/04 01:22:22;;;;;;;4.40;3.00;;;;;;;22.21;62.09;99583.00;4269983;33;35233;-88
2021/08/04 01:25:04;;;;;;;4.05;3.10;;;;;;;22.05;62.38;99590.00;4245964;33;33991;-88
2021/08/04 01:27:33;;;;;;;4.65;3.20;;;;;;;21.93;62.49;99591.47;4257658;33;34842;-89
2021/08/04 01:30:00;;;;;;;5.87;2.72;;;;;;;21.98;62.30;99586.81;4258179;33;33843;-89
2021/08/04 01:32:29;;;;;;;3.47;3.17;;;;;;;22.08;61.81;99574.78;4257710;33;33472;-89
2021/08/04 01:34:58;;;;;;;7.05;3.08;;;;;;;22.06;62.05;99581.13;4257924;33;33743;-89
2021/08/04 01:37:26;;;;;;;5.45;3.08;;;;;;;21.98;62.05;99576.22;4258800;33;33490;-90
2021/08/04 01:39:54;;;;;;;5.72;3.10;;;;;;;21.97;61.85;99581.56;4259500;33;34609;-88
2021/08/04 01:42:22;;;;;;;4.37;2.75;;;;;;;21.98;61.66;99578.88;4259195;33;34515;-88
2021/08/04 01:44:54;;;;;;;5.47;2.80;;;;;;;21.91;61.76;99582.75;4259725;33;33266;-88
2021/08/04 01:47:22;;;;;;;5.25;3.00;;;;;;;21.96;61.52;99580.75;4259095;33;34744;-87
2021/08/04 01:49:50;;;;;;;3.95;2.90;;;;;;;21.93;61.49;99580.88;4258738;33;34080;-86
2021/08/04 01:52:18;;;;;;;4.10;2.92;;;;;;;22.05;61.13;99584.69;4259545;33;34124;-90
2021/08/04 01:54:45;;;;;;;6.43;3.37;;;;;;;21.79;61.72;99585.97;4259835;33;34499;-86
2021/08/04 01:57:13;;;;;;;3.95;3.03;;;;;;;21.76;61.64;99588.75;4259891;33;33338;-87
2021/08/04 01:59:41;;;;;;;3.30;3.00;;;;;;;21.89;61.19;99591.69;4260337;33;35848;-90
2021/08/04 02:02:23;;;;;;;6.10;3.28;;;;;;;21.76;61.57;99594.06;4247993;33;34416;-90
2021/08/04 02:04:51;;;;;;;2.87;2.58;;;;;;;21.70;61.68;99591.72;4259903;33;33199;-90
2021/08/04 02:08:16;;;;;;;4.87;3.00;;;;;;;21.62;61.73;99596.50;4260117;33;33435;-89
2021/08/04 02:10:47;;;;;;;5.60;2.92;;;;;;;21.70;61.59;99604.09;4219578;33;33560;-90
2021/08/04 02:13:35;;;;;;;4.70;2.75;;;;;;;21.52;61.98;99590.81;4242338;33;35429;-90
2021/08/04 02:16:25;;;;;;;4.65;3.12;;;;;;;21.58;61.70;99595.78;4257921;33;34592;-90
2021/08/04 02:19:21;;;;;;;7.53;2.90;;;;;;;21.60;61.69;99598.38;4260578;33;34042;-90
2021/08/04 02:21:57;;;;;;;4.57;2.80;;;;;;;21.71;61.15;99606.66;4260183;33;34276;-90
2021/08/04 02:24:50;;;;;;;3.12;2.75;;;;;;;21.68;61.49;99611.25;4262086;33;34308;-88
2021/08/04 02:27:18;;;;;;;4.50;3.05;;;;;;;21.70;61.33;99604.94;4258841;33;32830;-90
2021/08/04 02:29:49;;;;;;;4.30;2.95;;;;;;;21.65;61.46;99609.59;4259514;33;33222;-91
2021/08/04 02:32:18;;;;;;;4.07;3.33;;;;;;;21.62;61.60;99611.53;4260076;33;34342;-90
2021/08/04 02:34:45;;;;;;;7.20;2.97;;;;;;;21.55;61.63;99616.25;4247291;33;33980;-91
2021/08/04 02:37:26;;;;;;;5.78;3.05;;;;;;;21.64;61.27;99621.09;4296721;33;33010;-91
2021/08/04 02:40:25;;;;;;;5.85;2.90;;;;;;;21.44;61.79;99615.94;4271025;33;35564;-91
2021/08/04 02:43:32;;;;;;;7.82;2.80;;;;;;;21.39;61.96;99610.84;4272401;33;34499;-91
2021/08/04 02:46:18;;;;;;;4.30;2.60;;;;;;;21.58;61.12;99601.09;4298804;33;33544;-92
2021/08/04 02:49:26;;;;;;;4.12;3.25;;;;;;;21.55;61.40;99601.25;4293668;33;35046;-90
2021/08/04 02:51:55;;;;;;;3.30;2.92;;;;;;;21.52;61.45;99611.97;4277661;33;34317;-91
2021/08/04 02:54:23;;;;;;;4.85;2.40;;;;;;;21.42;61.64;99615.09;4288562;33;34078;-90
2021/08/04 02:56:51;;;;;;;3.53;2.80;;;;;;;21.08;62.93;99636.13;4289380;33;35436;-91
2021/08/04 02:59:23;;;;;;;4.00;3.33;;;;;;;21.07;62.89;99672.28;4291371;33;33981;-93
2021/08/04 03:02:06;;;;;;;4.28;2.92;;;;;;;20.78;63.46;99689.41;4290611;33;33355;-92
2021/08/04 03:05:10;;;;;;;4.43;4.00;;;;;;;20.98;62.92;99674.44;4293709;33;34699;-89
2021/08/04 03:07:38;;;;;;;8.80;3.45;;;;;;;20.93;62.71;99679.94;4277912;33;34572;-93
2021/08/04 03:10:18;;;;;;;5.35;3.85;;;;;;;21.02;62.66;99670.72;4272040;33;35168;-91
2021/08/04 03:12:46;;;;;;;4.87;3.95;;;;;;;21.21;62.07;99663.72;4261450;33;34334;-90
2021/08/04 03:15:14;;;;;;;5.28;3.78;;;;;;;21.24;62.00;99658.31;4250089;33;34119;-91
2021/08/04 03:18:13;;;;;;;5.62;4.07;;;;;;;21.19;62.36;99660.28;4263601;33;34567;-91
2021/08/04 03:20:41;;;;;;;4.93;3.90;;;;;;;21.38;61.61;99655.88;4261712;33;33243;-91
2021/08/04 03:23:10;;;;;;;5.20;3.83;;;;;;;21.33;62.12;99660.53;4273511;33;34166;-92
2021/08/04 03:25:49;;;;;;;8.20;4.32;;;;;;;21.30;62.04;99643.00;4285692;33;34310;-93
2021/08/04 03:28:41;;;;;;;6.60;4.28;;;;;;;21.24;62.16;99650.37;4281559;33;34542;-91
2021/08/04 03:31:23;;;;;;;6.30;4.90;;;;;;;20.97;63.13;99654.25;4274389;33;33491;-92
2021/08/04 03:34:14;;;;;;;6.45;4.87;;;;;;;21.07;62.93;99650.25;4270747;33;32800;-93
2021/08/04 03:36:53;;;;;;;4.82;4.40;;;;;;;21.25;62.21;99639.69;4287862;33;34172;-92
2021/08/04 03:39:44;;;;;;;6.10;4.82;;;;;;;21.28;61.96;99642.22;4271329;33;34800;-92
2021/08/04 03:42:23;;;;;;;6.57;4.10;;;;;;;21.41;61.36;99638.09;4270410;33;33047;-92
2021/08/04 03:45:14;;;;;;;7.82;4.20;;;;;;;21.52;61.11;99640.22;4283295;33;34257;-89
2021/08/04 03:47:41;;;;;;;7.07;4.30;;;;;;;21.56;61.00;99637.34;4273267;33;34370;-88
2021/08/04 03:50:10;;;;;;;5.90;4.18;;;;;;;21.54;61.21;99644.50;4273333;33;34483;-89
2021/08/04 03:52:42;;;;;;;8.20;4.20;;;;;;;21.64;61.08;99641.41;4273170;33;34682;-90
2021/08/04 03:55:50;;;;;;;6.27;4.30;;;;;;;21.70;60.96;99634.06;4265870;33;34017;-89
2021/08/04 03:58:17;;;;;;;5.85;4.15;;;;;;;21.62;61.48;99643.28;4273109;33;34262;-90
2021/08/04 04:01:12;;;;;;;5.93;3.58;;;;;;;21.75;61.33;99650.56;4274511;33;33495;-91
2021/08/04 04:03:40;;;;;;;7.50;4.07;;;;;;;21.72;61.73;99656.03;4273410;33;33142;-91
2021/08/04 04:06:08;;;;;;;6.35;3.22;;;;;;;21.80;61.50;99669.72;4273615;33;33373;-90
2021/08/04 04:08:36;;;;;;;8.13;4.03;;;;;;;21.79;61.44;99669.81;4264125;33;35652;-90
2021/08/04 04:11:05;;;;;;;7.12;3.87;;;;;;;21.71;62.01;99679.91;4286765;33;33446;-91
2021/08/04 04:13:33;;;;;;;4.75;3.20;;;;;;;21.82;61.77;99672.31;4275016;33;33555;-88
2021/08/04 04:16:00;;;;;;;5.75;3.47;;;;;;;21.80;62.06;99680.31;4274721;33;32973;-91
2021/08/04 04:19:08;;;;;;;4.18;3.25;;;;;;;21.80;62.00;99676.84;4245053;33;33520;-92
2021/08/04 04:21:50;;;;;;;5.22;3.30;;;;;;;21.87;62.13;99675.66;4248712;33;33755;-88
2021/08/04 04:24:19;;;;;;;5.45;3.30;;;;;;;21.87;62.18;99665.87;4260755;33;33932;-91
2021/08/04 04:26:54;;;;;;;5.87;3.10;;;;;;;22.06;61.74;99677.31;4261570;33;33266;-93
2021/08/04 04:29:49;;;;;;;5.93;3.22;;;;;;;22.04;61.99;99673.87;4286673;33;34133;-92
2021/08/04 04:32:28;;;;;;;4.70;3.45;;;;;;;22.16;61.75;99668.00;4277529;33;33736;-91
2021/08/04 04:35:21;;;;;;;6.07;3.50;;;;;;;22.00;62.55;99672.31;4249962;33;33073;-92
2021/08/04 04:38:08;;;;;;;5.65;3.80;;;;;;;22.14;62.21;99672.50;4261025;33;33213;-92
2021/08/04 04:41:03;;;;;;;4.37;3.20;;;;;;;22.12;62.38;99669.09;4256627;33;35093;-91
2021/08/04 04:43:42;;;;;;;4.03;3.33;;;;;;;22.29;62.13;99670.03;4281649;33;33348;-92
2021/08/04 04:46:34;;;;;;;5.32;3.20;;;;;;;22.39;61.77;99666.00;4284845;33;34450;-92
2021/08/04 04:49:13;;;;;;;6.22;2.87;;;;;;;22.47;61.70;99667.31;4298435;33;33287;-92
2021/08/04 04:52:04;;;;;;;6.53;3.03;;;;;;;22.55;61.62;99674.88;4261499;33;35343;-90
2021/08/04 04:54:44;;;;;;;4.30;3.03;;;;;;;22.49;61.32;99670.75;4270641;33;34306;-91
2021/08/04 04:57:36;;;;;;;4.12;3.12;;;;;;;22.31;61.35;99669.03;4286157;33;33161;-91
2021/08/04 05:00:15;;;;;;;5.45;2.70;;;;;;;22.39;61.23;99671.28;4266816;33;36060;-92
2021/08/04 05:03:07;;;;;;;3.55;3.08;;;;;;;22.30;61.70;99674.41;4275844;33;34340;-92
2021/08/04 05:05:51;;;;;;;4.28;2.90;;;;;;;22.41;61.37;99680.87;4288659;33;34844;-91
2021/08/04 05:08:23;;;;;;;3.20;2.85;;;;;;;22.29;62.10;99685.94;4289082;33;33300;-91
2021/08/04 05:11:10;;;;;;;6.37;2.70;;;;;;;22.51;61.50;99689.22;4289584;33;34665;-90
2021/08/04 05:13:40;;;;;;;5.30;2.20;;;;;;;22.65;60.85;99692.94;4276792;33;34655;-90
2021/08/04 05:16:08;;;;;;;5.80;2.92;;;;;;;22.79;60.09;99703.69;4288077;33;33797;-91
2021/08/04 05:18:36;;;;;;;4.95;2.35;;;;;;;22.79;59.69;99700.19;4276630;33;32760;-91
2021/08/04 05:21:40;;;;;;;4.78;2.40;;;;;;;22.88;59.64;99705.00;4271976;33;34195;-91
2021/08/04 05:24:27;;;;;;;6.03;3.03;;;;;;;22.92;59.89;99698.59;4274536;33;34695;-91
2021/08/04 05:27:35;;;;;;;2.87;2.45;;;;;;;22.98;59.51;99706.25;4270225;33;35329;-91
2021/08/04 05:30:07;;;;;;;2.78;2.05;;;;;;;23.08;59.24;99702.19;4263074;33;34510;-91
2021/08/04 05:32:35;;;;;;;2.72;2.12;;;;;;;23.03;59.79;99704.22;4261954;33;33942;-91
2021/08/04 05:35:05;;;;;;;4.20;2.42;;;;;;;23.06;59.29;99706.69;4273913;33;34627;-88
2021/08/04 05:37:32;;;;;;;2.67;2.10;;;;;;;23.19;59.22;99714.84;4251081;33;34254;-93
2021/08/04 05:40:09;;;;;;;4.60;2.10;;;;;;;23.24;58.86;99721.66;4264954;33;33609;-91
2021/08/04 05:42:36;;;;;;;4.72;1.90;;;;;;;23.23;59.83;99727.88;4251044;33;34264;-90
2021/08/04 05:45:05;;;;;;;2.55;2.12;;;;;;;23.45;59.24;99717.00;4263611;33;34829;-90
2021/08/04 05:47:32;;;;;;;4.22;2.05;;;;;;;23.51;58.38;99716.66;4252052;33;33415;-88
2021/08/04 05:50:00;;;;;;;3.25;2.10;;;;;;;23.72;58.22;99717.31;4251917;33;33672;-87
2021/08/04 05:52:27;;;;;;;2.00;1.80;;;;;;;23.93;57.54;99718.78;4287036;33;33311;-90
2021/08/04 05:54:55;;;;;;;2.67;1.90;;;;;;;24.06;56.83;99719.78;4264303;33;35449;-93
2021/08/04 05:57:23;;;;;;;2.15;1.87;;;;;;;24.26;56.00;99710.72;4264421;33;34201;-88
2021/08/04 05:59:51;;;;;;;3.28;1.70;;;;;;;24.31;56.54;99701.56;4252285;33;34314;-86
2021/08/04 06:02:19;;;;;;;3.47;2.17;;;;;;;24.36;56.01;99704.81;4286908;33;34126;-87
2021/08/04 06:04:47;;;;;;;5.70;2.17;;;;;;;24.38;55.99;99700.25;4287102;33;35525;-87
2021/08/04 06:07:15;;;;;;;3.17;1.75;;;;;;;24.52;55.77;99705.63;4286979;33;34205;-88
2021/08/04 06:09:42;;;;;;;2.35;2.00;;;;;;;24.64;55.10;99706.69;4263079;33;33203;-87
2021/08/04 06:12:10;;;;;;;3.83;2.42;;;;;;;24.82;54.64;99702.97;4263325;33;33372;-88
2021/08/04 06:14:37;;;;;;;4.18;2.12;;;;;;;24.65;54.77;99706.59;4273535;33;34091;-85
2021/08/04 06:17:05;;;;;;;4.37;2.10;;;;;;;24.82;53.79;99708.28;4285535;33;34607;-88
2021/08/04 06:19:35;;;;;;;4.10;1.75;;;;;;;24.80;54.45;99705.72;4262502;33;33472;-88
2021/08/04 06:22:06;;;;;;;5.68;2.05;;;;;;;25.02;53.62;99704.44;4274300;33;33587;-87
2021/08/04 06:24:35;;;;;;;3.97;2.17;;;;;;;25.21;52.96;99697.03;4277845;33;34377;-91
2021/08/04 06:27:09;;;;;;;5.90;2.10;;;;;;;25.19;52.82;99699.81;4267369;33;34373;-91
2021/08/04 06:29:46;;;;;;;2.78;2.00;;;;;;;25.45;51.75;99695.56;4302223;33;34814;-89
2021/08/04 06:32:40;;;;;;;2.50;1.87;;;;;;;25.59;51.17;99692.88;4278845;33;36248;-91
2021/08/04 06:35:11;;;;;;;4.78;2.40;;;;;;;25.67;51.45;99681.75;4258121;33;33574;-91
2021/08/04 06:37:38;;;;;;;3.05;2.47;;;;;;;25.88;50.83;99683.91;4291267;33;34191;-94
2021/08/04 06:40:07;;;;;;;4.87;2.40;;;;;;;25.84;51.25;99694.88;4268364;33;33029;-89
2021/08/04 06:42:35;;;;;;;5.00;2.42;;;;;;;25.92;49.82;99695.19;4268334;33;33251;-90
2021/08/04 06:45:03;;;;;;;3.22;2.28;;;;;;;25.94;49.69;99693.28;4266823;33;33934;-90
2021/08/04 06:47:31;;;;;;;4.55;2.20;;;;;;;26.19;49.51;99694.31;4278185;33;34309;-91
2021/08/04 06:49:59;;;;;;;6.68;2.55;;;;;;;26.27;49.25;99700.94;4267106;33;32847;-88
2021/08/04 06:52:26;;;;;;;6.28;2.35;;;;;;;26.37;48.58;99700.22;4278828;33;34006;-91
2021/08/04 06:54:54;;;;;;;5.82;2.22;;;;;;;26.65;48.42;99691.22;4278571;33;34340;-91
2021/08/04 06:57:22;;;;;;;12.70;3.80;;;;;;;26.87;47.73;99692.38;4278708;33;34003;-93
2021/08/04 06:59:50;;;;;;;6.25;2.33;;;;;;;26.94;47.12;99694.59;4281112;33;33015;-92
2021/08/04 07:02:38;;;;;;;7.35;2.12;;;;;;;27.02;46.49;99702.94;4272534;33;33382;-93
2021/08/04 07:05:07;;;;;;;8.25;2.60;;;;;;;27.22;46.11;99700.59;4279541;33;33817;-90
2021/08/04 07:07:35;;;;;;;4.50;2.60;;;;;;;27.46;45.46;99706.94;4292339;33;34233;-92
2021/08/04 07:10:03;;;;;;;5.65;2.53;;;;;;;27.67;44.78;99703.69;4267423;33;33004;-90
2021/08/04 07:12:30;;;;;;;7.32;2.30;;;;;;;27.89;44.47;99699.34;4277033;33;34152;-89
2021/08/04 07:14:58;;;;;;;3.90;2.28;;;;;;;27.78;45.43;99703.78;4289651;33;34549;-88
2021/08/04 07:17:26;;;;;;;2.60;2.00;;;;;;;27.82;44.29;99705.25;4279199;33;34897;-90
2021/08/04 07:19:54;;;;;;;3.87;2.35;;;;;;;27.86;44.11;99707.59;4280224;33;33404;-90
2021/08/04 07:22:21;;;;;;;6.80;3.30;;;;;;;27.86;44.67;99699.56;4291337;33;34673;-91
2021/08/04 07:24:50;;;;;;;4.43;2.20;;;;;;;27.96;44.59;99700.62;4266766;33;35493;-89
2021/08/04 07:27:17;;;;;;;4.47;2.22;;;;;;;28.23;43.37;99695.09;4291690;33;34918;-90
2021/08/04 07:29:45;;;;;;;3.15;1.92;;;;;;;28.17;43.87;99698.22;4268828;33;33251;-90
2021/08/04 07:32:13;;;;;;;4.62;1.83;;;;;;;28.07;43.87;99691.84;4257174;33;33014;-92
2021/08/04 07:34:42;;;;;;;4.03;2.15;;;;;;;28.34;43.16;99695.16;4280754;33;34687;-92
2021/08/04 07:37:32;;;;;;;4.47;2.28;;;;;;;28.34;42.96;99686.25;4282524;33;33862;-90
2021/08/04 07:40:01;;;;;;;2.80;1.80;;;;;;;28.37;43.73;99686.91;4291845;33;33025;-90
2021/08/04 07:42:29;;;;;;;3.75;2.40;;;;;;;28.62;43.09;99688.63;4280094;33;34885;-92
2021/08/04 07:45:14;;;;;;;3.80;2.42;;;;;;;28.72;42.45;99685.12;4284055;33;35120;-92
2021/08/04 07:47:41;;;;;;;4.05;1.80;;;;;;;28.54;42.47;99691.84;4292006;33;34853;-89
2021/08/04 07:50:19;;;;;;;2.90;1.75;;;;;;;28.55;42.61;99693.53;4291016;33;33663;-89
2021/08/04 07:53:06;;;;;;;6.35;2.17;;;;;;;28.75;42.64;99695.59;4268867;33;33383;-90
2021/08/04 07:55:34;;;;;;;3.42;2.15;;;;;;;28.89;42.58;99697.22;4266331;33;34204;-88
2021/08/04 07:58:01;;;;;;;3.37;2.00;;;;;;;28.61;43.05;99702.97;4277662;33;35013;-88
2021/08/04 08:00:29;;;;;;;3.83;2.15;;;;;;;28.80;44.21;99709.47;4277702;33;33057;-87
2021/08/04 08:02:57;;;;;;;7.85;2.90;;;;;;;28.80;42.56;99713.97;4278205;33;34969;-85
2021/08/04 08:05:25;;;;;;;5.82;2.17;;;;;;;28.58;43.11;99712.03;4300361;33;35202;-85
2021/08/04 08:07:52;;;;;;;6.97;2.78;;;;;;;28.84;41.71;99710.94;4298952;33;32982;-85
2021/08/04 08:10:25;;;;;;;3.67;2.03;;;;;;;28.96;40.97;99713.63;4276362;33;34201;-88
2021/08/04 08:12:52;;;;;;;2.70;1.92;;;;;;;29.04;41.28;99711.22;4275908;33;33524;-87
2021/08/04 08:15:20;;;;;;;4.50;2.10;;;;;;;29.15;41.19;99709.44;4275742;33;34484;-87
2021/08/04 08:17:48;;;;;;;3.15;1.85;;;;;;;29.33;40.16;99709.84;4264016;33;33934;-90
2021/08/04 08:20:16;;;;;;;3.35;1.80;;;;;;;29.21;41.48;99709.00;4275711;33;33152;-88
2021/08/04 08:22:45;;;;;;;3.65;2.22;;;;;;;29.18;39.26;99709.22;4275865;33;33241;-88
2021/08/04 08:25:14;;;;;;;3.90;2.10;;;;;;;29.16;41.10;99702.25;4289302;33;34134;-89
2021/08/04 08:27:42;;;;;;;5.87;2.15;;;;;;;29.02;42.51;99702.47;4276440;33;33597;-86
2021/08/04 08:30:10;;;;;;;4.47;2.33;;;;;;;29.04;41.46;99700.53;4276343;33;33450;-89
2021/08/04 08:32:38;;;;;;;5.32;2.42;;;;;;;29.10;41.13;99703.56;4266092;33;32600;-87
2021/08/04 08:35:08;;;;;;;5.45;2.40;;;;;;;29.03;42.42;99701.47;4279665;33;34044;-88
2021/08/04 08:37:35;;;;;;;3.62;2.20;;;;;;;29.15;40.71;99708.56;4279437;33;34515;-92
2021/08/04 08:40:05;;;;;;;6.78;2.80;;;;;;;29.13;41.30;99711.37;4278927;33;33268;-96
2021/08/04 08:42:47;;;;;;;3.17;2.00;;;;;;;29.13;43.33;99710.50;4277410;33;33879;-86
2021/08/04 08:45:15;;;;;;;4.72;2.00;;;;;;;29.02;43.81;99707.81;4275711;33;34658;-90
2021/08/04 08:47:44;;;;;;;3.50;2.40;;;;;;;28.97;43.06;99708.19;4251827;33;33735;-90
2021/08/04 08:50:19;;;;;;;5.32;2.25;;;;;;;29.02;42.89;99697.97;4254932;33;33063;-87
2021/08/04 08:52:49;;;;;;;5.40;2.33;;;;;;;28.77;44.00;99699.00;4289304;33;34759;-89
2021/08/04 08:55:18;;;;;;;2.83;1.92;;;;;;;28.77;44.65;99703.50;4277841;33;34444;-91
2021/08/04 08:58:01;;;;;;;2.95;1.90;;;;;;;29.07;43.40;99705.66;4289027;33;33520;-89
2021/08/04 09:00:30;;;;;;;2.87;1.70;;;;;;;29.38;42.75;99703.16;4278260;33;34383;-88
2021/08/04 09:02:57;;;;;;;1.92;1.23;;;;;;;29.34;44.01;99695.47;4278031;33;33479;-86
2021/08/04 09:05:25;;;;;;;5.37;1.50;;;;;;;29.55;43.17;99701.81;4278454;33;35509;-87
2021/08/04 09:07:53;;;;;;;5.40;1.83;;;;;;;29.37;43.90;99704.13;4289810;33;33471;-88
2021/08/04 09:10:33;;;;;;;3.50;1.73;;;;;;;29.00;44.60;99702.59;4301789;33;33577;-87
2021/08/04 09:13:03;;;;;;;3.53;1.40;;;;;;;29.00;43.63;99693.72;4278680;33;34312;-87
2021/08/04 09:15:35;;;;;;;1.67;1.40;;;;;;;29.06;43.44;99698.56;4290171;33;34638;-87
2021/08/04 09:18:05;;;;;;;3.47;1.50;;;;;;;29.28;43.69;99682.56;4302149;33;34372;-88
2021/08/04 09:20:53;;;;;;;2.25;1.30;;;;;;;29.03;44.03;99694.31;4278323;33;32854;-88
2021/08/04 09:23:24;;;;;;;2.50;1.33;;;;;;;28.94;44.21;99696.84;4267063;33;34269;-88
2021/08/04 09:26:04;;;;;;;1.95;1.67;;;;;;;28.92;43.51;99688.94;4278190;33;33905;-88
2021/08/04 09:28:50;;;;;;;2.53;1.48;;;;;;;28.99;44.10;99697.34;4303174;33;34126;-88
2021/08/04 09:31:19;;;;;;;3.47;1.60;;;;;;;29.07;43.57;99693.12;4302077;33;33527;-88
2021/08/04 09:33:48;;;;;;;9.93;1.60;;;;;;;28.89;43.59;99696.34;4277887;33;34323;-87
2021/08/04 09:36:28;;;;;;;2.85;1.65;;;;;;;28.91;43.75;99684.56;4303063;33;35588;-88
2021/08/04 09:39:06;;;;;;;6.28;1.80;;;;;;;28.88;44.31;99691.97;4277715;33;33801;-87
2021/08/04 09:41:33;;;;;;;2.45;1.60;;;;;;;28.91;43.78;99691.75;4290202;33;33456;-87
2021/08/04 09:44:03;;;;;;;3.12;1.30;;;;;;;28.80;44.96;99690.75;4278173;33;34216;-87
2021/08/04 09:46:31;;;;;;;2.85;1.70;;;;;;;28.63;44.35;99693.84;4289669;33;34592;-87
2021/08/04 09:49:10;;;;;;;3.30;1.85;;;;;;;28.68;44.02;99696.16;4278010;33;34053;-87
2021/08/04 09:51:38;;;;;;;5.40;1.60;;;;;;;28.50;45.51;99692.19;4277623;33;33736;-88
2021/08/04 09:54:14;;;;;;;3.10;1.70;;;;;;;28.58;45.79;99692.44;4289486;33;34893;-87
2021/08/04 09:56:58;;;;;;;1.75;1.58;;;;;;;28.45;44.82;99687.19;4277458;33;35473;-87
2021/08/04 09:59:26;;;;;;;4.70;1.87;;;;;;;28.51;45.01;99692.06;4279773;33;34336;-87
2021/08/04 10:01:56;;;;;;;2.22;1.70;;;;;;;28.13;47.06;99696.75;4303268;33;33728;-87
2021/08/04 10:04:24;;;;;;;2.78;1.65;;;;;;;28.44;45.69;99700.66;4302694;33;34526;-87
2021/08/04 10:07:04;;;;;;;3.50;1.67;;;;;;;28.51;45.40;99691.22;4303313;33;35475;-88
2021/08/04 10:09:32;;;;;;;2.40;1.90;;;;;;;28.56;45.82;99700.59;4303267;33;34110;-87
2021/08/04 10:12:00;;;;;;;6.25;1.90;;;;;;;28.82;45.43;99695.97;4279393;33;32876;-87
2021/08/04 10:14:29;;;;;;;2.75;1.73;;;;;;;28.68;44.94;99691.69;4303622;33;34073;-87
2021/08/04 10:16:57;;;;;;;2.47;1.95;;;;;;;28.58;45.07;99690.63;4291173;33;35433;-88
2021/08/04 10:19:26;;;;;;;2.60;2.15;;;;;;;28.80;45.12;99693.41;4291209;33;33541;-88
2021/08/04 10:21:54;;;;;;;4.35;1.98;;;;;;;28.95;45.86;99693.22;4279354;33;33010;-88
2021/08/04 10:24:22;;;;;;;4.15;1.67;;;;;;;29.04;45.21;99695.16;4291291;33;33961;-88
2021/08/04 10:26:50;;;;;;;3.08;1.80;;;;;;;28.88;44.66;99681.28;4279411;33;35466;-88
2021/08/04 10:29:20;;;;;;;5.35;2.33;;;;;;;29.02;44.80;99686.41;4302968;33;34288;-88
2021/08/04 10:31:49;;;;;;;3.05;1.98;;;;;;;28.86;44.67;99685.91;4291310;33;33653;-87
2021/08/04 10:34:25;;;;;;;2.95;1.95;;;;;;;28.88;44.90;99694.66;4268648;33;33331;-88
2021/08/04 10:36:55;;;;;;;;;;;;;;;29.01;44.71;99682.88;4267784;33;34018;-88
2021/08/04 10:39:24;;;;;;;2.30;2.03;;;;;;;28.98;44.73;99674.25;4291031;33;34023;-88
2021/08/04 10:42:04;;;;;;;3.00;1.87;;;;;;;28.95;44.59;99686.03;4279985;33;32871;-88
2021/08/04 10:44:32;;;;;;;3.20;1.80;;;;;;;29.06;44.77;99682.50;4279117;33;34208;-88
2021/08/04 10:47:02;;;;;;;3.50;1.80;;;;;;;29.22;45.50;99672.34;4279315;33;35531;-88
2021/08/04 10:49:37;;;;;;;5.75;2.20;;;;;;;29.37;44.54;99673.81;4279304;33;34228;-88
2021/08/04 10:52:10;;;;;;;3.12;2.15;;;;;;;29.03;44.21;99672.03;4267496;33;33763;-88
2021/08/04 10:55:07;;;;;;;5.18;2.25;;;;;;;29.14;44.31;99680.09;4279098;33;34072;-87
2021/08/04 10:58:03;;;;;;;4.57;2.17;;;;;;;29.14;44.44;99669.38;4290634;33;34816;-87
2021/08/04 11:00:32;;;;;;;4.97;2.20;;;;;;;29.55;43.63;99666.16;4290841;33;34013;-88
2021/08/04 11:03:00;;;;;;;5.85;2.60;;;;;;;29.36;43.82;99664.91;4266991;33;32691;-87
2021/08/04 11:06:07;;;;;;;4.18;2.10;;;;;;;29.37;43.46;99661.28;4278733;33;34270;-88
2021/08/04 11:08:35;;;;;;;4.53;2.40;;;;;;;29.41;43.14;99664.53;4286741;33;35585;-88
2021/08/04 11:11:03;;;;;;;2.67;2.03;;;;;;;29.42;42.59;99663.59;4289942;33;33570;-88
2021/08/04 11:13:45;;;;;;;4.05;2.47;;;;;;;29.11;44.22;99669.62;4302438;33;33936;-88
2021/08/04 11:16:32;;;;;;;3.05;2.08;;;;;;;29.33;43.27;99664.31;4303637;33;33866;-88
2021/08/04 11:19:03;;;;;;;4.45;2.25;;;;;;;29.08;44.71;99670.72;4278799;33;34764;-88
2021/08/04 11:21:31;;;;;;;4.70;2.80;;;;;;;29.09;44.76;99666.22;4266927;33;33470;-88
2021/08/04 11:23:59;;;;;;;5.00;2.70;;;;;;;29.29;43.46;99662.84;4290899;33;33628;-88
2021/08/04 11:26:36;;;;;;;4.05;2.60;;;;;;;29.36;43.53;99653.34;4267130;33;33804;-88
2021/08/04 11:29:07;;;;;;;4.62;2.33;;;;;;;29.12;44.41;99649.91;4302585;33;34606;-89
2021/08/04 11:31:35;;;;;;;4.93;2.70;;;;;;;29.61;42.59;99650.41;4278772;33;34651;-89
2021/08/04 11:34:26;;;;;;;4.00;2.12;;;;;;;29.70;41.90;99649.66;4290600;33;34408;-88
2021/08/04 11:36:59;;;;;;;3.83;2.20;;;;;;;29.72;43.08;99641.50;4302004;33;34502;-88
2021/08/04 11:39:26;;;;;;;2.35;2.00;;;;;;;29.81;43.84;99646.16;4290685;33;34805;-88
2021/08/04 11:41:54;;;;;;;2.83;2.28;;;;;;;29.85;43.62;99648.47;4278480;33;33685;-88
2021/08/04 11:44:27;;;;;;;3.55;2.30;;;;;;;30.09;41.17;99643.78;4290365;33;33515;-88
2021/08/04 11:47:05;;;;;;;5.35;2.05;;;;;;;30.10;41.48;99644.59;4278530;33;33460;-88
2021/08/04 11:49:35;;;;;;;3.20;2.30;;;;;;;30.09;40.84;99642.91;4290718;33;34455;-88
2021/08/04 11:52:03;;;;;;;2.50;2.03;;;;;;;30.09;42.03;99643.78;4278840;33;33431;-88
2021/08/04 11:54:34;;;;;;;3.33;2.00;;;;;;;30.09;41.98;99643.78;4290738;33;33499;-89
2021/08/04 11:57:03;;;;;;;4.22;2.08;;;;;;;30.18;39.61;99636.78;4290597;33;34830;-89
2021/08/04 11:59:40;;;;;;;3.42;2.10;;;;;;;30.23;40.26;99633.72;4279022;33;34612;-87
2021/08/04 12:02:12;;;;;;;5.20;2.50;;;;;;;30.07;41.99;99640.34;4267378;33;35262;-87
2021/08/04 12:04:45;;;;;;;3.72;2.00;;;;;;;30.19;42.35;99638.47;4279323;33;33051;-87
2021/08/04 12:07:13;;;;;;;6.95;1.92;;;;;;;30.26;41.41;99633.47;4278524;33;34368;-88